createdAt,value
2022-12-04T00:00:39.029Z,93839.72
2022-12-04T00:03:43.203Z,93845.78
2022-12-04T00:06:47.148Z,93845.56
2022-12-04T00:09:51.236Z,93856.44
2022-12-04T00:12:54.387Z,93857.53
2022-12-04T00:15:58.672Z,93854.19
2022-12-04T00:19:02.826Z,93859.53
2022-12-04T00:22:06.496Z,93859.94
2022-12-04T00:25:10.792Z,93860.00
2022-12-04T00:28:14.140Z,93857.66
2022-12-04T00:31:26.355Z,93864.25
2022-12-04T00:34:29.479Z,93859.31
2022-12-04T00:37:34.523Z,93858.81
2022-12-04T00:40:38.541Z,93852.81
2022-12-04T00:43:42.684Z,93857.28
2022-12-04T00:46:46.407Z,93863.88
2022-12-04T00:49:50.853Z,93872.69
2022-12-04T00:52:54.515Z,93871.94
2022-12-04T00:55:58.354Z,93874.31
2022-12-04T00:59:02.746Z,93876.38
2022-12-04T01:02:06.025Z,93887.06
2022-12-04T01:05:10.178Z,93886.31
2022-12-04T01:08:13.602Z,93888.66
2022-12-04T01:11:18.934Z,93891.59
2022-12-04T01:14:22.626Z,93891.00
2022-12-04T01:17:26.840Z,93904.66
2022-12-04T01:20:30.601Z,93891.34
2022-12-04T01:23:34.211Z,93897.47
2022-12-04T01:26:38.320Z,93899.22
2022-12-04T01:29:42.271Z,93903.13
2022-12-04T01:32:46.293Z,93904.44
2022-12-04T01:35:57.677Z,93903.75
2022-12-04T01:39:01.345Z,93900.66
2022-12-04T01:42:06.146Z,93905.44
2022-12-04T01:45:47.881Z,93892.41
2022-12-04T01:48:54.500Z,93891.53
2022-12-04T01:52:01.669Z,93883.72
2022-12-04T01:55:06.130Z,93890.53
2022-12-04T01:58:10.610Z,93894.41
2022-12-04T02:01:14.452Z,93895.31
2022-12-04T02:04:18.426Z,93887.22
2022-12-04T02:07:22.081Z,93901.53
2022-12-04T02:10:56.743Z,93894.00
2022-12-04T02:14:21.358Z,93899.63
2022-12-04T02:17:37.514Z,93892.84
2022-12-04T02:21:01.393Z,93899.59
2022-12-04T02:24:29.994Z,93889.94
2022-12-04T02:27:42.652Z,93900.50
2022-12-04T02:30:47.595Z,93899.75
2022-12-04T02:34:17.150Z,93889.22
2022-12-04T02:37:31.100Z,93889.38
2022-12-04T02:41:00.400Z,93889.44
2022-12-04T02:44:39.597Z,93881.78
2022-12-04T02:47:45.046Z,93878.91
2022-12-04T02:50:53.243Z,93873.78
2022-12-04T02:54:02.465Z,93884.38
2022-12-04T02:57:09.688Z,93875.47
2022-12-04T03:00:14.143Z,93884.59
2022-12-04T03:03:29.779Z,93879.00
2022-12-04T03:06:36.991Z,93872.00
2022-12-04T03:09:46.097Z,93886.97
2022-12-04T03:12:55.134Z,93882.50
2022-12-04T03:16:27.906Z,93866.34
2022-12-04T03:19:37.956Z,93876.44
2022-12-04T03:22:44.921Z,93881.59
2022-12-04T03:26:01.998Z,93875.03
2022-12-04T03:29:25.959Z,93881.81
2022-12-04T03:32:40.935Z,93877.16
2022-12-04T03:35:53.425Z,93877.16
2022-12-04T03:39:11.872Z,93875.50
2022-12-04T03:42:23.436Z,93871.75
2022-12-04T03:45:43.147Z,93871.53
2022-12-04T03:48:55.252Z,93877.16
2022-12-04T03:52:04.623Z,93871.97
2022-12-04T03:55:16.917Z,93876.22
2022-12-04T03:58:25.766Z,93867.53
2022-12-04T04:01:39.431Z,93867.09
2022-12-04T04:04:48.785Z,93861.19
2022-12-04T04:08:21.997Z,93849.50
2022-12-04T04:11:33.604Z,93857.69
2022-12-04T04:15:36.555Z,93853.91
2022-12-04T04:18:59.056Z,93859.53
2022-12-04T04:22:25.607Z,93855.78
2022-12-04T04:25:29.920Z,93853.88
2022-12-04T04:28:35.190Z,93856.94
2022-12-04T04:31:42.942Z,93866.22
2022-12-04T04:35:01.673Z,93863.63
2022-12-04T04:38:31.486Z,93856.28
2022-12-04T04:41:45.527Z,93865.38
2022-12-04T04:44:52.301Z,93868.16
2022-12-04T04:48:02.362Z,93862.22
2022-12-04T04:51:07.128Z,93856.59
2022-12-04T04:54:14.695Z,93873.72
2022-12-04T04:57:33.126Z,93867.72
2022-12-04T05:00:37.046Z,93863.44
2022-12-04T05:03:41.891Z,93865.13
2022-12-04T05:06:46.867Z,93860.34
2022-12-04T05:09:50.522Z,93865.59
2022-12-04T05:12:54.310Z,93869.44
2022-12-04T05:16:03.384Z,93867.88
2022-12-04T05:19:24.998Z,93861.69
2022-12-04T05:22:32.582Z,93865.53
2022-12-04T05:25:36.606Z,93861.38
2022-12-04T05:28:42.774Z,93851.81
2022-12-04T05:31:46.837Z,93854.16
2022-12-04T05:34:52.097Z,93857.59
2022-12-04T05:37:55.482Z,93852.97
2022-12-04T05:41:00.302Z,93856.81
2022-12-04T05:44:04.363Z,93861.47
2022-12-04T05:47:08.244Z,93852.13
2022-12-04T05:50:14.229Z,93856.16
2022-12-04T05:53:17.367Z,93854.72
2022-12-04T05:56:21.383Z,93858.94
2022-12-04T05:59:25.089Z,93847.34
2022-12-04T06:02:29.715Z,93839.69
2022-12-04T06:05:33.664Z,93844.44
2022-12-04T06:08:37.328Z,93844.25
2022-12-04T06:11:43.351Z,93846.72
2022-12-04T06:14:47.802Z,93865.75
2022-12-04T06:17:51.501Z,93861.72
2022-12-04T06:20:59.535Z,93853.41
2022-12-04T06:24:02.946Z,93852.72
2022-12-04T06:30:32.650Z,93852.38
2022-12-04T06:33:36.318Z,93846.78
2022-12-04T06:36:40.025Z,93852.06
2022-12-04T06:39:43.894Z,93835.69
2022-12-04T06:42:46.844Z,93836.81
2022-12-04T06:45:59.667Z,93837.28
2022-12-04T06:49:04.105Z,93843.53
2022-12-04T06:52:07.154Z,93844.81
2022-12-04T06:55:10.677Z,93842.50
2022-12-04T06:58:13.526Z,93839.28
2022-12-04T07:01:21.100Z,93833.28
2022-12-04T07:04:25.244Z,93847.03
2022-12-04T07:07:28.333Z,93845.47
2022-12-04T07:10:31.960Z,93841.97
2022-12-04T07:13:34.973Z,93839.38
2022-12-04T07:16:41.795Z,93847.06
2022-12-04T07:19:45.480Z,93850.50
2022-12-04T07:22:48.460Z,93855.03
2022-12-04T07:25:52.795Z,93854.47
2022-12-04T07:28:57.274Z,93842.03
2022-12-04T07:32:00.690Z,93836.56
2022-12-04T07:35:05.899Z,93844.69
2022-12-04T07:38:09.813Z,93849.28
2022-12-04T07:41:14.687Z,93850.06
2022-12-04T07:44:18.310Z,93848.34
2022-12-04T07:47:21.993Z,93842.84
2022-12-04T07:50:25.617Z,93868.94
2022-12-04T07:53:28.634Z,93860.19
2022-12-04T07:56:34.221Z,93870.81
2022-12-04T07:59:38.000Z,93864.41
2022-12-04T08:02:42.144Z,93862.78
2022-12-04T08:05:45.897Z,93868.38
2022-12-04T08:08:50.219Z,93868.44
2022-12-04T08:11:54.162Z,93863.34
2022-12-04T08:14:57.491Z,93869.50
2022-12-04T08:18:01.401Z,93865.38
2022-12-04T08:21:13.846Z,93876.00
2022-12-04T08:24:17.628Z,93864.31
2022-12-04T08:27:21.564Z,93868.69
2022-12-04T08:30:25.484Z,93861.53
2022-12-04T08:33:29.627Z,93873.28
2022-12-04T08:36:34.404Z,93878.22
2022-12-04T08:39:38.105Z,93867.66
2022-12-04T08:42:42.188Z,93881.28
2022-12-04T08:45:46.444Z,93888.09
2022-12-04T08:48:49.921Z,93893.72
2022-12-04T08:51:54.197Z,93898.16
2022-12-04T08:54:58.138Z,93897.22
2022-12-04T08:58:02.770Z,93902.66
2022-12-04T09:01:12.625Z,93892.78
2022-12-04T09:04:16.985Z,93894.94
2022-12-04T09:07:20.953Z,93897.50
2022-12-04T09:10:25.871Z,93911.09
2022-12-04T09:13:29.823Z,93902.19
2022-12-04T09:16:33.838Z,93896.13
2022-12-04T09:19:37.755Z,93906.66
2022-12-04T09:23:02.742Z,93907.13
2022-12-04T09:26:07.373Z,93894.00
2022-12-04T09:29:12.538Z,93901.69
2022-12-04T09:32:16.250Z,93897.50
2022-12-04T09:35:20.636Z,93883.22
2022-12-04T09:38:24.566Z,93888.16
2022-12-04T09:41:37.666Z,93882.06
2022-12-04T09:44:51.014Z,93879.94
2022-12-04T09:48:00.748Z,93880.19
2022-12-04T09:51:07.139Z,93877.13
2022-12-04T09:54:22.818Z,93870.81
2022-12-04T09:57:44.154Z,93881.56
2022-12-04T10:00:51.293Z,93873.38
2022-12-04T10:03:58.817Z,93870.78
2022-12-04T10:07:35.138Z,93871.69
2022-12-04T10:10:59.495Z,93872.88
2022-12-04T10:14:15.793Z,93877.56
2022-12-04T10:17:32.493Z,93879.19
2022-12-04T10:20:43.822Z,93879.91
2022-12-04T10:23:59.865Z,93891.59
2022-12-04T10:27:11.667Z,93897.19
2022-12-04T10:30:27.468Z,93890.16
2022-12-04T10:33:39.075Z,93888.97
2022-12-04T10:36:46.811Z,93902.03
2022-12-04T10:39:52.430Z,93906.69
2022-12-04T10:43:20.734Z,93903.41
2022-12-04T10:46:46.645Z,93911.34
2022-12-04T10:49:57.403Z,93900.59
2022-12-04T10:53:01.509Z,93905.72
2022-12-04T10:56:14.181Z,93912.03
2022-12-04T10:59:19.139Z,93910.38
2022-12-04T11:02:32.856Z,93905.94
2022-12-04T11:05:41.341Z,93913.72
2022-12-04T11:08:52.520Z,93905.72
2022-12-04T11:12:07.303Z,93906.69
2022-12-04T11:15:16.404Z,93904.78
2022-12-04T11:18:30.741Z,93907.31
2022-12-04T11:21:34.858Z,93916.06
2022-12-04T11:24:40.728Z,93913.72
2022-12-04T11:27:47.964Z,93913.72
2022-12-04T11:30:55.299Z,93917.09
2022-12-04T11:34:09.538Z,93902.00
2022-12-04T11:37:25.766Z,93911.31
2022-12-04T11:40:29.446Z,93913.81
2022-12-04T11:43:37.750Z,93900.44
2022-12-04T11:46:41.248Z,93901.78
2022-12-04T11:49:44.636Z,93903.63
2022-12-04T11:52:47.716Z,93910.38
2022-12-04T11:55:51.775Z,93896.69
2022-12-04T11:59:39.556Z,93909.81
2022-12-04T12:02:59.849Z,93913.44
2022-12-04T12:06:25.998Z,93909.53
2022-12-04T12:09:35.586Z,93902.25
2022-12-04T12:12:55.808Z,93903.84
2022-12-04T12:16:25.608Z,93902.53
2022-12-04T12:19:55.494Z,93903.84
2022-12-04T12:23:18.639Z,93897.81
2022-12-04T12:26:24.113Z,93899.44
2022-12-04T12:29:48.817Z,93899.88
2022-12-04T12:33:28.620Z,93907.00
2022-12-04T12:36:43.440Z,93897.03
2022-12-04T12:40:15.139Z,93905.28
2022-12-04T12:43:23.995Z,93900.91
2022-12-04T12:46:40.414Z,93899.56
2022-12-04T12:49:46.286Z,93902.03
2022-12-04T12:53:08.677Z,93893.34
2022-12-04T12:56:13.812Z,93897.56
2022-12-04T12:59:21.323Z,93898.00
2022-12-04T13:02:37.589Z,93896.66
2022-12-04T13:05:45.944Z,93894.50
2022-12-04T13:09:00.728Z,93891.78
2022-12-04T13:12:15.791Z,93892.44
2022-12-04T13:15:23.099Z,93889.16
2022-12-04T13:18:33.911Z,93890.22
2022-12-04T13:22:09.456Z,93902.25
2022-12-04T13:25:27.629Z,93898.47
2022-12-04T13:28:48.279Z,93891.19
2022-12-04T13:32:27.522Z,93889.75
2022-12-04T13:36:24.089Z,93869.13
2022-12-04T13:39:37.161Z,93884.09
2022-12-04T13:42:40.219Z,93885.38
2022-12-04T13:45:47.285Z,93893.00
2022-12-04T13:48:50.327Z,93879.06
2022-12-04T13:51:54.407Z,93883.88
2022-12-04T13:55:01.135Z,93866.81
2022-12-04T13:58:13.144Z,93872.47
2022-12-04T14:01:33.955Z,93870.78
2022-12-04T14:04:43.053Z,93887.97
2022-12-04T14:08:07.145Z,93886.47
2022-12-04T14:11:19.100Z,93884.06
2022-12-04T14:14:28.204Z,93879.31
2022-12-04T14:17:38.736Z,93879.38
2022-12-04T14:20:45.074Z,93875.38
2022-12-04T14:23:49.630Z,93881.28
2022-12-04T14:27:11.379Z,93882.91
2022-12-04T14:30:24.354Z,93889.47
2022-12-04T14:33:31.214Z,93880.91
2022-12-04T14:36:38.103Z,93890.94
2022-12-04T14:39:47.342Z,93889.91
2022-12-04T14:42:51.231Z,93879.91
2022-12-04T14:46:28.055Z,93875.97
2022-12-04T14:49:50.351Z,93881.03
2022-12-04T14:53:35.580Z,93880.72
2022-12-04T14:57:03.145Z,93881.47
2022-12-04T15:00:17.505Z,93873.75
2022-12-04T15:03:21.615Z,93874.28
2022-12-04T15:06:28.490Z,93877.28
2022-12-04T15:09:50.960Z,93870.50
2022-12-04T15:12:55.383Z,93872.88
2022-12-04T15:15:59.431Z,93877.16
2022-12-04T15:19:02.503Z,93868.53
2022-12-04T15:22:11.712Z,93862.91
2022-12-04T15:25:21.872Z,93862.84
2022-12-04T15:28:43.881Z,93854.41
2022-12-04T15:31:54.549Z,93861.50
2022-12-04T15:35:06.929Z,93857.53
2022-12-04T15:38:14.437Z,93852.31
2022-12-04T15:41:35.915Z,93861.19
2022-12-04T15:44:39.671Z,93854.69
2022-12-04T15:47:43.996Z,93867.97
2022-12-04T15:50:57.308Z,93854.97
2022-12-04T15:54:02.771Z,93850.78
2022-12-04T15:57:15.503Z,93843.34
2022-12-04T16:00:37.944Z,93838.44
2022-12-04T16:03:45.027Z,93842.72
2022-12-04T16:06:51.152Z,93837.94
2022-12-04T16:10:02.897Z,93838.50
2022-12-04T16:13:07.256Z,93839.91
2022-12-04T16:16:20.039Z,93837.25
2022-12-04T16:19:40.038Z,93837.03
2022-12-04T16:22:44.206Z,93824.69
2022-12-04T16:25:51.090Z,93831.78
2022-12-04T16:28:57.057Z,93830.31
2022-12-04T16:32:03.295Z,93826.56
2022-12-04T16:35:08.013Z,93822.13
2022-12-04T16:38:17.528Z,93817.88
2022-12-04T16:41:22.067Z,93818.69
2022-12-04T16:44:25.315Z,93822.19
2022-12-04T16:47:28.538Z,93817.31
2022-12-04T16:50:32.589Z,93810.31
2022-12-04T16:53:35.897Z,93813.84
2022-12-04T16:56:39.940Z,93814.97
2022-12-04T16:59:43.157Z,93806.03
2022-12-04T17:02:47.442Z,93815.38
2022-12-04T17:05:50.596Z,93816.16
2022-12-04T17:08:53.685Z,93819.63
2022-12-04T17:11:57.291Z,93816.88
2022-12-04T17:15:00.932Z,93815.81
2022-12-04T17:18:11.146Z,93810.91
2022-12-04T17:21:16.663Z,93811.56
2022-12-04T17:24:20.381Z,93808.53
2022-12-04T17:27:25.982Z,93800.63
2022-12-04T17:30:32.848Z,93797.75
2022-12-04T17:33:39.255Z,93800.81
2022-12-04T17:36:42.554Z,93796.69
2022-12-04T17:39:46.249Z,93794.81
2022-12-04T17:42:50.401Z,93800.47
2022-12-04T17:45:53.496Z,93782.53
2022-12-04T17:49:01.551Z,93788.19
2022-12-04T17:52:08.421Z,93791.28
2022-12-04T17:55:12.165Z,93794.31
2022-12-04T17:58:16.126Z,93791.06
2022-12-04T18:01:25.824Z,93789.94
2022-12-04T18:04:29.253Z,93778.88
2022-12-04T18:07:33.026Z,93779.78
2022-12-04T18:10:39.087Z,93776.25
2022-12-04T18:13:42.807Z,93775.56
2022-12-04T18:16:48.843Z,93775.00
2022-12-04T18:19:52.573Z,93762.31
2022-12-04T18:22:56.651Z,93766.38
2022-12-04T18:26:01.941Z,93765.69
2022-12-04T18:29:06.973Z,93758.22
2022-12-04T18:32:10.741Z,93769.63
2022-12-04T18:35:14.582Z,93767.78
2022-12-04T18:38:18.323Z,93772.19
2022-12-04T18:41:22.580Z,93758.81
2022-12-04T18:44:27.178Z,93747.41
2022-12-04T18:47:32.329Z,93750.03
2022-12-04T18:50:35.836Z,93748.16
2022-12-04T18:53:39.593Z,93750.06
2022-12-04T18:56:43.575Z,93750.97
2022-12-04T18:59:46.500Z,93738.91
2022-12-04T19:02:50.837Z,93740.69
2022-12-04T19:05:54.769Z,93737.78
2022-12-04T19:09:01.584Z,93734.03
2022-12-04T19:12:05.377Z,93746.91
2022-12-04T19:15:09.590Z,93729.44
2022-12-04T19:18:13.661Z,93718.22
2022-12-04T19:21:18.645Z,93716.13
2022-12-04T19:24:23.644Z,93716.34
2022-12-04T19:27:28.521Z,93703.78
2022-12-04T19:30:34.879Z,93703.72
2022-12-04T19:33:38.915Z,93690.88
2022-12-04T19:36:43.187Z,93699.78
2022-12-04T19:39:46.509Z,93688.06
2022-12-04T19:42:49.515Z,93685.00
2022-12-04T19:45:53.202Z,93666.84
2022-12-04T19:48:59.335Z,93676.72
2022-12-04T19:52:02.274Z,93659.94
2022-12-04T19:55:06.169Z,93652.31
2022-12-04T19:58:09.891Z,93644.34
2022-12-04T20:01:22.643Z,93635.00
2022-12-04T20:04:26.341Z,93638.28
2022-12-04T20:07:30.208Z,93635.97
2022-12-04T20:10:36.414Z,93638.16
2022-12-04T20:13:40.966Z,93634.84
2022-12-04T20:16:44.732Z,93635.53
2022-12-04T20:19:48.237Z,93630.41
2022-12-04T20:22:51.250Z,93627.38
2022-12-04T20:25:54.810Z,93626.44
2022-12-04T20:28:59.446Z,93618.31
2022-12-04T20:32:02.937Z,93615.53
2022-12-04T20:35:07.605Z,93599.94
2022-12-04T20:38:11.051Z,93602.00
2022-12-04T20:41:16.795Z,93602.69
2022-12-04T20:44:21.048Z,93590.78
2022-12-04T20:47:25.554Z,93588.47
2022-12-04T20:50:28.870Z,93584.97
2022-12-04T20:53:31.879Z,93584.25
2022-12-04T20:56:38.225Z,93574.19
2022-12-04T20:59:42.405Z,93568.56
2022-12-04T21:02:46.206Z,93562.00
2022-12-04T21:05:50.489Z,93571.13
2022-12-04T21:08:54.803Z,93557.13
2022-12-04T21:11:58.083Z,93555.97
2022-12-04T21:15:19.909Z,93555.97
2022-12-04T21:18:22.843Z,93546.63
2022-12-04T21:21:27.925Z,93542.22
2022-12-04T21:24:36.728Z,93532.63
2022-12-04T21:27:39.813Z,93541.53
2022-12-04T21:30:43.153Z,93531.47
2022-12-04T21:33:46.198Z,93536.13
2022-12-04T21:36:49.215Z,93528.88
2022-12-04T21:39:53.268Z,93534.94
2022-12-04T21:42:57.021Z,93533.09
2022-12-04T21:46:08.990Z,93529.34
2022-12-04T21:49:14.180Z,93516.97
2022-12-04T21:52:19.138Z,93512.56
2022-12-04T21:55:22.212Z,93519.28
2022-12-04T21:58:29.337Z,93510.22
2022-12-04T22:01:32.256Z,93503.22
2022-12-04T22:04:35.361Z,93497.13
2022-12-04T22:07:39.642Z,93495.25
2022-12-04T22:10:47.525Z,93484.31
2022-12-04T22:13:51.131Z,93479.66
2022-12-04T22:16:55.153Z,93489.72
2022-12-04T22:19:59.302Z,93481.97
2022-12-04T22:23:03.719Z,93491.53
2022-12-04T22:26:13.233Z,93482.44
2022-12-04T22:29:48.660Z,93483.41
2022-12-04T22:32:40.457Z,93478.97
2022-12-04T22:35:43.370Z,93480.13
2022-12-04T22:39:08.168Z,93469.41
2022-12-04T22:42:10.205Z,93472.19
2022-12-04T22:45:14.243Z,93471.75
2022-12-04T22:48:17.647Z,93464.53
2022-12-04T22:51:22.855Z,93479.44
2022-12-04T22:54:26.249Z,93471.53
2022-12-04T22:57:30.000Z,93472.44
2022-12-04T23:00:33.332Z,93470.81
2022-12-04T23:03:37.120Z,93465.91
2022-12-04T23:06:40.755Z,93458.91
2022-12-04T23:09:44.503Z,93454.50
2022-12-04T23:12:48.212Z,93453.34
2022-12-04T23:15:51.219Z,93455.41
2022-12-04T23:18:55.146Z,93448.66
2022-12-04T23:21:58.849Z,93434.91
2022-12-04T23:25:01.748Z,93438.88
2022-12-04T23:28:04.728Z,93434.91
2022-12-04T23:31:08.134Z,93436.53
2022-12-04T23:34:11.135Z,93432.34
2022-12-04T23:37:14.253Z,93423.47
2022-12-04T23:40:17.953Z,93423.47
2022-12-04T23:43:21.348Z,93420.69
2022-12-04T23:46:29.356Z,93425.34
2022-12-04T23:49:32.383Z,93415.78
2022-12-04T23:52:36.128Z,93421.16
2022-12-04T23:55:39.863Z,93411.59
2022-12-04T23:58:44.412Z,93412.72
